Latest Coastal Weather Observations for Bairnsdale

IDV60701

Issued at 11:01 pm EDT Friday 27 March 2015 (issued every 10 minutes, with the page automatically refreshed every 10 minutes)

About coastal observations | Map of coastal stations | Coastal observations for VIC | Marine services | Other Formats
Station Details ID: 085279 Name: BAIRNSDALE AIRPORT Lat: -37.88 Lon: 147.57 Height: 49.4 m
Data from the previous 72 hours. | See also: Recent months at Bairnsdale
Date/Time
EDT
Temp

°C
Wind Pressure Rain
since 9am
mm
Weather Cloud Vis
km
Sea
Height
m
Swell
Dir
 
Speed
knots
Gust
knots
hPa Trend Height
m
Period
s
Dir
27/11:00pm 12.3 W 11 16 1023.0 - 0.2 - - 10 - - - -
27/10:30pm 12.5 W 12 18 1022.9 - 0.2 - - 10 - - - -
27/10:00pm 13.0 W 15 21 1022.5 - 0.2 - - 10 - - - -
27/09:30pm 13.2 W 14 21 1022.6 - 0.2 - Partly cloudy 10 - - - -
27/09:00pm 13.4 W 15 20 1022.3 - 0.2 - Mostly clear 10 - - - -
27/08:30pm 13.6 W 14 19 1022.0 - 0.2 - Partly cloudy 10 - - - -
27/08:00pm 14.1 W 17 23 1021.5 - 0.2 - Partly cloudy 10 - - - -
27/07:30pm 14.1 W 17 24 1021.1 - 0.2 - Partly cloudy 10 - - - -
27/07:05pm 14.5 W 18 28 1020.9 - 0.2 - Partly cloudy 10 - - - -
27/07:00pm 14.7 W 16 22 1020.8 - 0.2 - Partly cloudy 10 - - - -
27/06:39pm 15.0 W 17 27 1020.6 - 0.2 - Partly cloudy 10 - - - -
27/06:30pm 15.2 W 19 27 1020.5 - 0.2 - Partly cloudy 10 - - - -
27/06:09pm 15.5 W 19 31 1020.4 - 0.2 - Partly cloudy 10 - - - -
27/06:00pm 15.7 W 18 25 1020.2 - 0.2 - Cloudy 10 - - - -
27/05:30pm 16.1 W 22 32 1019.6 - 0.2 - Partly cloudy 10 - - - -
27/05:13pm 16.3 W 21 33 1019.4 - 0.2 - Partly cloudy 10 - - - -
27/05:00pm 16.6 WSW 22 30 1019.2 - 0.2 - Partly cloudy 10 - - - -
27/04:30pm 17.1 W 21 34 1018.8 - 0.2 - Partly cloudy 10 - - - -
27/04:00pm 16.8 W 22 32 1018.9 - 0.2 - Cloudy 10 - - - -
27/03:30pm 17.3 W 24 36 1018.9 - 0.2 - Partly cloudy 10 - - - -
27/03:00pm 16.8 W 21 32 1019.0 - 0.2 - Cloudy 10 - - - -
27/02:35pm 17.2 W 25 37 1018.5 - 0.2 - Partly cloudy 10 - - - -
27/02:30pm 17.2 W 23 31 1018.7 - 0.2 - Partly cloudy 10 - - - -
27/02:06pm 16.6 W 23 33 1018.8 - 0.2 - Partly cloudy 10 - - - -
27/02:00pm 16.1 W 21 28 1018.9 - 0.2 - Partly cloudy 10 - - - -
27/01:30pm 17.5 W 25 37 1018.9 - 0.2 - Partly cloudy 10 - - - -
27/01:00pm 18.0 W 26 39 1018.7 - 0.2 - Partly cloudy 10 - - - -
27/12:30pm 15.6 W 26 36 1018.9 - 0.2 - Partly cloudy 10 - - - -
27/12:00pm 16.4 W 21 33 1019.0 - 0.2 Recent precip. Cloudy 10 - - - -
27/11:30am 14.7 W 21 34 1019.0 - 0.2 - Partly cloudy 10 - - - -
27/11:00am 14.5 W 21 32 1019.0 - 0.0 - Partly cloudy 10 - - - -
27/10:46am 15.8 W 22 32 1019.0 - 0.0 - Partly cloudy 10 - - - -
27/10:30am 15.5 W 21 30 1018.8 - 0.0 - Partly cloudy 10 - - - -
27/10:00am 15.7 W 23 34 1018.2 - 0.0 - Partly cloudy 10 - - - -
27/09:30am 15.5 W 23 34 1017.9 - 0.0 - Partly cloudy 10 - - - -
27/08:30am 14.5 W 15 27 1017.3 - 0.2 - Partly cloudy 10 - - - -
27/08:29am 14.4 W 15 27 1017.3 - 0.2 - Partly cloudy 10 - - - -
27/08:00am 13.9 WNW 13 20 1017.2 - 0.2 - Partly cloudy 10 - - - -
27/07:30am 13.4 WNW 13 17 1016.8 - 0.2 - Partly cloudy 10 - - - -
27/07:00am 13.1 WNW 15 24 1016.7 - 0.2 - Partly cloudy 10 - - - -
27/06:30am 13.0 W 11 15 1016.5 - 0.2 - Partly cloudy 10 - - - -
27/06:00am 12.3 WSW 11 15 1016.2 - 0.2 Recent precip. Cloudy 10 - - - -
27/05:30am 12.9 W 11 16 1016.1 - 0.2 - Partly cloudy 10 - - - -
27/05:00am 12.8 WNW 12 22 1016.1 - 0.0 - Partly cloudy 10 - - - -
27/04:30am 12.1 WNW 7 9 1015.7 - 0.0 - Partly cloudy 10 - - - -
27/04:00am 13.1 WNW 9 12 1015.6 - 0.0 - Partly cloudy 10 - - - -
27/03:30am 13.4 NW 9 13 1015.4 - 0.0 - Partly cloudy 10 - - - -
27/03:00am 13.3 NW 7 9 1015.6 - 0.0 - Cloudy 10 - - - -
27/02:30am 13.3 NW 7 9 1015.7 - 0.0 - Partly cloudy 10 - - - -
27/02:00am 13.2 NW 7 9 1015.8 - 0.0 - Partly cloudy 10 - - - -
27/01:30am 12.9 NW 6 8 1015.8 - 0.0 - Partly cloudy 10 - - - -
27/01:00am 12.4 NW 7 9 1016.0 - 0.0 - Partly cloudy 10 - - - -
27/12:30am 12.9 WNW 7 9 1016.1 - 0.0 - Partly cloudy 10 - - - -
27/12:00am 12.5 WNW 6 7 1016.0 - 0.0 - Cloudy 50 - - - -
 
Date/Time
EDT
Temp

°C
Wind Pressure Rain
since 9am
mm
Weather Cloud Vis
km
Sea
Height
m
Swell
Dir
 
Speed
knots
Gust
knots
hPa Trend Height
m
Period
s
Dir
26/11:30pm 11.7 WNW 6 9 1015.9 - 0.0 - Partly cloudy 10 - - - -
26/11:00pm 11.5 NW 5 6 1015.9 - 0.0 - - 10 - - - -
26/10:30pm 11.4 NW 5 8 1015.8 - 0.0 - - 10 - - - -
26/10:00pm 11.0 NW 6 7 1015.8 - 0.0 - Partly cloudy 10 - - - -
26/09:30pm 11.7 NW 5 7 1015.8 - 0.0 - - 10 - - - -
26/09:00pm 12.1 NW 7 9 1015.7 - 0.0 - - 10 - - - -
26/08:30pm 12.3 NW 5 6 1015.5 - 0.0 - Partly cloudy 10 - - - -
26/08:00pm 14.8 NW 7 10 1015.4 - 0.0 - Partly cloudy 10 - - - -
26/07:30pm 16.2 NW 9 13 1015.2 - 0.0 - - 10 - - - -
26/07:00pm 17.0 NW 12 18 1014.9 - 0.0 - - 10 - - - -
26/06:30pm 18.2 WNW 11 15 1014.8 - 0.0 - - 10 - - - -
26/06:00pm 18.6 WNW 13 19 1014.6 - 0.0 - - 10 - - - -
26/05:30pm 19.4 WNW 13 17 1014.5 - 0.0 - - 10 - - - -
26/05:00pm 20.0 WNW 15 21 1014.3 - 0.0 - - 10 - - - -
26/04:30pm 19.9 WNW 17 25 1014.5 - 0.0 - - 10 - - - -
26/04:00pm 20.6 W 16 24 1014.7 - 0.0 - - 10 - - - -
26/03:32pm 20.9 WNW 18 28 1014.5 - 0.0 - - 10 - - - -
26/03:30pm 20.3 W 19 28 1014.5 - 0.0 - - 10 - - - -
26/03:14pm 20.5 W 18 28 1014.8 - 0.0 - - 10 - - - -
26/03:00pm 20.6 W 19 27 1014.8 - 0.0 - - 10 - - - -
26/02:35pm 19.8 WNW 15 25 1014.7 - 0.0 - Partly cloudy 10 - - - -
26/02:30pm 18.3 NW 13 23 1014.9 - 0.0 - Partly cloudy 10 - - - -
26/02:00pm 18.9 W 13 19 1015.3 - 0.0 - Partly cloudy 10 - - - -
26/01:50pm 17.6 W 15 25 1015.3 - 0.0 - Partly cloudy 10 - - - -
26/01:30pm 17.3 W 9 15 1015.5 - 0.0 - Partly cloudy 10 - - - -
26/01:00pm 18.8 WNW 12 22 1015.7 - 0.0 - - 10 - - - -
26/12:30pm 17.7 W 8 15 1016.2 - 0.0 - Partly cloudy 10 - - - -
26/12:00pm 17.2 WSW 12 16 1016.6 - 0.0 - Partly cloudy 10 - - - -
26/11:30am 15.5 WSW 8 14 1016.9 - 0.0 - Partly cloudy 10 - - - -
26/11:00am 13.6 W 9 15 1017.0 - 0.0 - Partly cloudy 10 - - - -
26/10:30am 12.9 WSW 10 15 1017.0 - 0.0 - Partly cloudy 10 - - - -
26/10:00am 11.4 WSW 11 16 1017.0 - 0.0 - Partly cloudy 10 - - - -
26/09:30am 10.8 WSW 13 18 1016.4 - 0.0 - Cloudy 10 - - - -
26/09:00am 10.9 WSW 13 20 1016.2 - 0.2 - Cloudy 10 - - - -
26/08:30am 10.7 WSW 11 15 1015.9 - 0.2 - Cloudy 10 - - - -
26/08:00am 10.1 WNW 5 6 1015.7 - 0.2 - Cloudy 10 - - - -
26/07:30am 8.7 WNW 7 9 1015.5 - 0.2 - Partly cloudy 10 - - - -
26/07:00am 9.3 WSW 9 11 1014.8 - 0.2 - Partly cloudy 10 - - - -
26/06:30am 9.3 WSW 10 14 1014.7 - 0.2 - - - - - - -
26/06:00am 9.5 WSW 7 10 1014.4 - 0.2 - - - - - - -
26/05:30am 8.9 NNW 6 7 1014.1 - 0.2 - - - - - - -
26/05:00am 9.1 NW 5 6 1013.9 - 0.2 - - - - - - -
26/04:30am 9.6 NW 5 6 1013.7 - 0.2 - Partly cloudy - - - - -
26/04:00am 10.4 WNW 6 7 1013.9 - 0.2 - Partly cloudy - - - - -
26/03:30am 10.0 NNW 6 7 1014.1 - 0.2 - - - - - - -
26/03:00am 10.9 WNW 6 8 1013.9 - 0.2 - - - - - - -
26/02:30am 11.2 WNW 7 10 1014.0 - 0.2 - - - - - - -
26/02:00am 11.1 NW 7 10 1013.8 - 0.2 - - - - - - -
26/01:30am 10.6 NW 8 11 1013.8 - 0.2 - - - - - - -
26/01:00am 10.1 NW 7 9 1013.5 - 0.2 - - - - - - -
26/12:30am 10.5 NW 6 7 1013.4 - 0.2 - - - - - - -
26/12:00am 11.0 WNW 6 8 1013.6 - 0.2 - - - - - - -
 
Date/Time
EDT
Temp

°C
Wind Pressure Rain
since 9am
mm
Weather Cloud Vis
km
Sea
Height
m
Swell
Dir
 
Speed
knots
Gust
knots
hPa Trend Height
m
Period
s
Dir
25/11:30pm 10.3 NW 5 6 1013.8 - 0.2 - - - - - - -
25/11:20pm 11.1 NW 5 6 1013.8 - 0.2 - - 10 - - - -
25/11:00pm 9.8 W 4 5 1013.7 - 0.2 - - 4 - - - -
25/10:35pm 11.3 SW 2 3 1013.9 - 0.2 - - 3 - - - -
25/10:30pm 11.9 SW 3 3 1013.8 - 0.2 - - 10 - - - -
25/10:00pm 11.5 S 4 4 1014.2 - 0.2 - - 10 - - - -
25/09:30pm 12.0 ESE 2 3 1014.2 - 0.2 - - 10 - - - -
25/09:00pm 14.5 E 3 4 1014.3 - 0.2 - Mostly clear 10 - - - -
25/08:30pm 14.8 ENE 5 6 1014.3 - 0.2 - - 10 - - - -
25/08:00pm 15.2 ENE 7 8 1014.3 - 0.2 - Partly cloudy 10 - - - -
25/07:30pm 15.6 E 7 9 1014.1 - 0.2 - - 10 - - - -
25/07:00pm 16.0 E 9 12 1014.0 - 0.2 - - 10 - - - -
25/06:30pm 16.3 E 10 15 1014.0 - 0.2 - - 10 - - - -
25/06:00pm 16.6 ESE 10 16 1013.9 - 0.2 - - 10 - - - -
25/05:30pm 16.6 ESE 12 16 1013.8 - 0.2 - - 10 - - - -
25/05:00pm 17.0 E 11 15 1013.6 - 0.2 - - 10 - - - -
25/04:30pm 16.9 ESE 11 16 1013.8 - 0.2 - - 10 - - - -
25/04:00pm 17.2 ESE 12 16 1014.1 - 0.2 - - 10 - - - -
25/03:30pm 18.0 ESE 10 13 1014.5 - 0.2 - - 10 - - - -
25/03:00pm 17.7 E 8 11 1014.9 - 0.2 - - 10 - - - -
25/02:30pm 17.4 E 8 13 1015.6 - 0.2 - - 10 - - - -
25/02:00pm 17.2 E 8 12 1016.3 - 0.2 - Partly cloudy 10 - - - -
25/01:30pm 17.0 E 8 13 1016.7 - 0.2 - Partly cloudy 10 - - - -
25/01:00pm 16.4 NE 7 10 1017.5 - 0.2 - Partly cloudy 10 - - - -
25/12:30pm 16.2 NE 6 9 1017.9 - 0.2 - Partly cloudy 10 - - - -
25/12:00pm 15.7 NW 4 6 1018.4 - 0.0 - Mostly cloudy 10 - - - -
25/11:30am 15.0 WNW 3 5 1019.0 - 0.0 - Cloudy 10 - - - -
25/11:12am 14.7 WNW 3 7 1019.1 - 0.0 - Cloudy 10 - - - -
25/11:00am 13.7 W 5 8 1019.2 - 0.0 - Cloudy 10 - - - -
25/10:30am 13.0 WNW 6 8 1019.5 - 0.0 - Cloudy 10 - - - -
25/10:00am 12.5 W 8 12 1019.7 - 0.0 - Cloudy 10 - - - -
25/09:30am 12.4 W 8 11 1019.4 - 0.0 - Partly cloudy 10 - - - -
25/09:10am 12.0 W 7 9 1019.1 - 0.0 - Partly cloudy 10 - - - -
25/09:08am 12.0 W 7 9 1019.1 - 0.0 - Partly cloudy 10 - - - -
25/09:00am 12.0 W 7 9 1019.0 - 3.8 - Cloudy 10 - - - -
25/08:50am 11.9 W 7 9 1018.9 - 3.8 - Partly cloudy 10 - - - -
25/08:30am 11.9 W 5 7 1018.6 - 3.8 - Partly cloudy 10 - - - -
25/08:00am 11.6 WNW 6 9 1018.4 - 3.8 - Partly cloudy 10 - - - -
25/07:30am 11.5 WNW 8 10 1018.4 - 3.8 - Partly cloudy 10 - - - -
25/07:00am 11.5 WNW 7 9 1018.2 - 3.8 - Partly cloudy 10 - - - -
25/06:49am 11.6 WNW 7 9 1018.1 - 3.8 - Partly cloudy 10 - - - -
25/06:30am 11.6 WNW 7 9 1018.0 - 3.8 - Partly cloudy - - - - -
25/06:00am 11.5 WNW 7 10 1017.8 - 3.8 - Cloudy 10 - - - -
25/05:30am 11.5 WNW 8 11 1017.9 - 3.8 - Partly cloudy - - - - -
25/05:00am 11.5 WNW 8 10 1017.6 - 3.8 - Cloudy - - - - -
25/04:30am 11.6 WNW 8 11 1017.5 - 3.8 - Cloudy - - - - -
25/04:00am 11.6 W 8 11 1017.3 - 3.8 - Cloudy - - - - -
25/03:30am 11.7 WNW 9 11 1017.6 - 3.8 - Cloudy - - - - -
25/03:00am 11.7 WNW 8 10 1017.5 - 3.8 - Cloudy - - - - -
25/02:30am 11.8 W 7 10 1017.3 - 3.8 - Cloudy - - - - -
25/02:00am 11.9 WNW 9 11 1017.8 - 3.8 - Cloudy - - - - -
25/01:30am 12.0 WNW 9 11 1018.0 - 3.8 - Cloudy - - - - -
25/01:00am 12.2 WNW 8 11 1018.0 - 3.8 - Cloudy - - - - -
25/12:30am 12.2 WNW 8 12 1018.1 - 3.8 - Cloudy - - - - -
25/12:00am 12.5 W 8 11 1018.3 - 3.8 - Cloudy - - - - -
 
Date/Time
EDT
Temp

°C
Wind Pressure Rain
since 9am
mm
Weather Cloud Vis
km
Sea
Height
m
Swell
Dir
 
Speed
knots
Gust
knots
hPa Trend Height
m
Period
s
Dir
24/11:35pm 12.6 W 7 10 1018.4 - 3.8 - Partly cloudy - - - - -
24/11:30pm 12.6 W 8 10 1018.4 - 3.8 - Partly cloudy - - - - -

Other Formats:

Comma delimited format used in spreadsheet applications
http://www.bom.gov.au/fwo/IDV60701/IDV60701.94912.axf

JavaScript Object Notation format (JSON) in row-major order
http://www.bom.gov.au/fwo/IDV60701/IDV60701.94912.json